Time;durP1;ratioP1;P1;durP2;ratioP2;P2;SDS_P1;SDS_P2;PMS_P1;PMS_P2;Temp;Humidity;BMP_temperature;BMP_pressure;BME280_temperature;BME280_humidity;BME280_pressure;Samples;Min_cycle;Max_cycle;Signal;HPM_P1;HPM_P2
2024/01/24 00:01:03;;;;;;;3.50;0.88;;;;;;;14.59;100.00;101906.50;5058156;28;20526;-60
2024/01/24 00:03:30;;;;;;;2.47;0.70;;;;;;;14.86;100.00;101897.25;5043509;28;20083;-61
2024/01/24 00:05:58;;;;;;;1.75;0.82;;;;;;;14.55;100.00;101908.25;5044289;28;20049;-60
2024/01/24 00:08:25;;;;;;;1.00;0.50;;;;;;;14.32;100.00;101912.91;5045239;28;20056;-60
2024/01/24 00:10:52;;;;;;;1.00;0.43;;;;;;;14.50;100.00;101909.19;5045548;28;20051;-59
2024/01/24 00:13:20;;;;;;;2.20;0.60;;;;;;;14.65;100.00;101917.16;5055765;28;20049;-61
2024/01/24 00:15:47;;;;;;;2.80;0.60;;;;;;;14.73;98.85;101912.84;5031510;28;20065;-59
2024/01/24 00:18:15;;;;;;;0.90;0.55;;;;;;;14.67;99.05;101914.06;5048289;28;20071;-60
2024/01/24 00:20:42;;;;;;;2.63;0.70;;;;;;;14.70;99.62;101920.97;5059888;28;20057;-60
2024/01/24 00:23:11;;;;;;;1.83;0.50;;;;;;;14.65;99.54;101914.38;5045773;28;20407;-60
2024/01/24 00:25:38;;;;;;;1.98;0.82;;;;;;;14.73;98.67;101912.00;5045306;28;20091;-61
2024/01/24 00:28:06;;;;;;;1.98;0.57;;;;;;;14.70;99.63;101913.44;5045735;28;20049;-62
2024/01/24 00:30:33;;;;;;;1.80;0.60;;;;;;;14.78;99.21;101909.94;5060336;28;20049;-61
2024/01/24 00:33:01;;;;;;;1.52;0.47;;;;;;;14.80;99.19;101913.22;5044593;28;20049;-60
2024/01/24 00:35:29;;;;;;;0.80;0.50;;;;;;;14.52;99.26;101914.44;5046356;28;20057;-61
2024/01/24 00:37:57;;;;;;;0.75;0.40;;;;;;;14.79;99.54;101919.06;5045048;28;20091;-60
2024/01/24 00:40:24;;;;;;;0.98;0.50;;;;;;;14.78;98.77;101923.81;5026169;28;20066;-59
2024/01/24 00:42:51;;;;;;;0.80;0.60;;;;;;;14.86;98.57;101920.28;5025884;28;20056;-60
2024/01/24 00:45:19;;;;;;;1.75;0.70;;;;;;;14.81;98.71;101937.06;5071869;28;20057;-61
2024/01/24 00:47:48;;;;;;;1.08;0.35;;;;;;;14.76;97.92;101937.16;5039522;28;20052;-60
2024/01/24 00:50:16;;;;;;;1.15;0.52;;;;;;;14.83;98.63;101932.03;5040059;28;20067;-60
2024/01/24 00:52:43;;;;;;;2.28;1.02;;;;;;;14.79;98.42;101939.31;5045720;28;20463;-60
2024/01/24 00:55:10;;;;;;;1.38;0.68;;;;;;;14.68;98.90;101944.25;5042783;28;20041;-59
2024/01/24 00:57:38;;;;;;;1.83;0.60;;;;;;;14.79;99.02;101957.91;5039562;28;20068;-60
2024/01/24 01:00:07;;;;;;;0.95;0.50;;;;;;;15.01;98.43;101953.22;5025997;28;20520;-60
2024/01/24 01:02:34;;;;;;;2.40;0.60;;;;;;;14.87;97.90;101963.53;5041336;28;20057;-61
2024/01/24 01:05:04;;;;;;;2.13;0.73;;;;;;;14.49;99.73;101956.59;5025612;28;20053;-60
2024/01/24 01:07:31;;;;;;;2.10;0.90;;;;;;;14.64;100.00;101956.31;5043280;28;20053;-60
2024/01/24 01:09:58;;;;;;;1.10;0.57;;;;;;;14.90;100.00;101957.38;5044443;28;20053;-59
2024/01/24 01:12:25;;;;;;;1.33;0.50;;;;;;;14.61;100.00;101960.50;5043039;28;20056;-60
2024/01/24 01:14:53;;;;;;;1.25;0.40;;;;;;;14.78;100.00;101959.03;5036726;28;20600;-59
2024/01/24 01:17:20;;;;;;;1.35;0.40;;;;;;;14.77;100.00;101949.09;5028069;28;20081;-59
2024/01/24 01:19:47;;;;;;;1.85;0.40;;;;;;;14.76;100.00;101951.03;5028326;28;20060;-59
2024/01/24 01:22:15;;;;;;;1.65;0.50;;;;;;;14.80;100.00;101952.06;5042795;28;20052;-60
2024/01/24 01:24:42;;;;;;;1.05;0.30;;;;;;;14.71;100.00;101981.66;5046931;28;20053;-60
2024/01/24 01:27:09;;;;;;;2.40;0.60;;;;;;;14.71;100.00;101967.78;5049209;28;20052;-60
2024/01/24 01:29:37;;;;;;;0.93;0.32;;;;;;;14.66;100.00;101954.03;5029820;28;20056;-60
2024/01/24 01:32:05;;;;;;;1.75;0.40;;;;;;;14.77;100.00;101965.75;5047084;28;20064;-62
2024/01/24 01:34:32;;;;;;;1.08;0.25;;;;;;;14.79;100.00;101949.56;5033936;28;20084;-63
2024/01/24 01:37:00;;;;;;;1.48;0.22;;;;;;;14.55;100.00;101942.34;5028036;28;20049;-63
2024/01/24 01:39:28;;;;;;;0.68;0.32;;;;;;;14.69;100.00;101947.88;5028292;28;20064;-64
2024/01/24 01:41:55;;;;;;;1.08;0.40;;;;;;;14.66;100.00;101946.53;5042065;28;20057;-64
2024/01/24 01:44:23;;;;;;;0.95;0.25;;;;;;;14.54;100.00;101937.09;5047596;28;20048;-64
2024/01/24 01:46:53;;;;;;;1.02;0.30;;;;;;;14.46;100.00;101933.13;5045578;28;20625;-64
2024/01/24 01:49:21;;;;;;;1.48;0.40;;;;;;;14.57;100.00;101940.06;5027988;28;20563;-64
2024/01/24 01:51:50;;;;;;;2.05;0.30;;;;;;;14.42;100.00;101970.91;5028257;28;20064;-63
2024/01/24 01:54:17;;;;;;;1.75;0.30;;;;;;;14.51;100.00;101970.97;5026735;28;20060;-64
2024/01/24 01:56:45;;;;;;;0.82;0.30;;;;;;;14.49;100.00;101970.47;5033899;28;20053;-63
2024/01/24 01:59:12;;;;;;;2.38;0.40;;;;;;;14.39;100.00;101974.28;5062143;28;20052;-64
2024/01/24 02:01:40;;;;;;;1.20;0.20;;;;;;;14.42;100.00;101973.66;5046477;28;20060;-65
2024/01/24 02:04:08;;;;;;;0.77;0.20;;;;;;;14.46;100.00;101987.72;5047904;28;20053;-64
2024/01/24 02:06:35;;;;;;;0.88;0.30;;;;;;;14.28;100.00;101985.88;5046108;28;20053;-64
2024/01/24 02:09:07;;;;;;;0.40;0.25;;;;;;;14.42;100.00;101986.69;5047577;28;20060;-65
2024/01/24 02:11:35;;;;;;;1.10;0.30;;;;;;;14.50;100.00;101974.91;5047172;28;20056;-64
2024/01/24 02:14:03;;;;;;;0.90;0.30;;;;;;;14.47;100.00;101965.25;5047459;28;20766;-63
2024/01/24 02:16:30;;;;;;;0.50;0.20;;;;;;;14.41;100.00;101955.41;5045719;28;20071;-65
2024/01/24 02:18:58;;;;;;;0.17;0.10;;;;;;;14.54;100.00;101967.59;5058026;28;20064;-64
2024/01/24 02:21:26;;;;;;;0.52;0.10;;;;;;;14.34;100.00;101956.94;5058700;28;20056;-64
2024/01/24 02:23:54;;;;;;;0.25;0.15;;;;;;;14.47;100.00;101967.22;5048068;28;20479;-65
2024/01/24 02:26:21;;;;;;;0.60;0.17;;;;;;;14.50;100.00;101964.66;5061715;28;20063;-64
2024/01/24 02:28:48;;;;;;;0.20;0.10;;;;;;;14.57;100.00;101972.53;5043949;28;20445;-65
2024/01/24 02:31:15;;;;;;;1.42;0.25;;;;;;;14.46;100.00;101980.25;5045638;28;20057;-64
2024/01/24 02:33:43;;;;;;;0.20;0.10;;;;;;;14.56;100.00;101976.41;5039577;28;20076;-64
2024/01/24 02:36:12;;;;;;;0.10;0.10;;;;;;;14.62;100.00;101983.50;5037680;28;20053;-64
2024/01/24 02:38:40;;;;;;;1.07;0.27;;;;;;;14.61;100.00;101977.13;5046435;28;20547;-65
2024/01/24 02:41:07;;;;;;;0.80;0.20;;;;;;;14.45;100.00;101980.56;5045650;28;20291;-64
2024/01/24 02:43:35;;;;;;;0.30;0.15;;;;;;;14.48;100.00;101983.53;5047140;28;20053;-64
2024/01/24 02:46:02;;;;;;;0.25;0.25;;;;;;;14.55;100.00;101981.16;5047051;28;20049;-65
2024/01/24 02:48:30;;;;;;;0.47;0.20;;;;;;;14.66;100.00;101979.81;5045958;28;20428;-63
2024/01/24 02:50:57;;;;;;;0.45;0.20;;;;;;;14.68;100.00;101970.38;5046326;28;20056;-64
2024/01/24 02:53:24;;;;;;;0.43;0.20;;;;;;;14.55;100.00;101983.94;5046711;28;20820;-64
2024/01/24 02:55:52;;;;;;;0.20;0.20;;;;;;;14.59;100.00;101979.41;5050210;28;20724;-64
2024/01/24 02:58:19;;;;;;;0.77;0.20;;;;;;;14.57;100.00;101972.53;5052182;28;20491;-63
2024/01/24 03:00:46;;;;;;;0.25;0.13;;;;;;;14.62;100.00;101981.56;5046689;28;20067;-65
2024/01/24 03:03:14;;;;;;;3.67;0.25;;;;;;;14.96;100.00;101969.97;5044581;28;20076;-64
2024/01/24 03:05:41;;;;;;;0.20;0.20;;;;;;;14.70;100.00;101976.44;5046861;28;20052;-64
2024/01/24 03:08:10;;;;;;;0.93;0.20;;;;;;;14.62;100.00;101984.34;5045301;28;20049;-64
2024/01/24 03:10:37;;;;;;;0.50;0.13;;;;;;;14.81;100.00;101967.56;5046800;28;20049;-66
2024/01/24 03:13:04;;;;;;;0.10;0.10;;;;;;;14.83;100.00;101976.41;5044970;28;20061;-64
2024/01/24 03:15:32;;;;;;;0.75;0.30;;;;;;;14.76;100.00;101981.53;5043658;28;20048;-64
2024/01/24 03:17:59;;;;;;;0.10;0.10;;;;;;;14.61;100.00;101990.19;5047591;28;20059;-65
2024/01/24 03:20:26;;;;;;;2.22;0.30;;;;;;;14.61;100.00;101968.81;5065259;28;20060;-64
2024/01/24 03:22:54;;;;;;;0.20;0.10;;;;;;;14.59;100.00;101987.72;5027573;28;20064;-64
2024/01/24 03:25:21;;;;;;;0.15;0.10;;;;;;;14.61;100.00;101987.41;5045862;28;20594;-64
2024/01/24 03:27:48;;;;;;;0.63;0.20;;;;;;;14.55;100.00;101991.44;5046592;28;20060;-64
2024/01/24 03:30:16;;;;;;;0.50;0.20;;;;;;;14.72;100.00;101969.44;5046235;28;20059;-64
2024/01/24 03:32:43;;;;;;;0.10;0.10;;;;;;;14.61;100.00;101987.41;5046583;28;20065;-64
2024/01/24 03:35:11;;;;;;;0.20;0.20;;;;;;;14.69;100.00;101975.59;5060523;28;20059;-64
2024/01/24 03:37:38;;;;;;;0.10;0.10;;;;;;;14.79;100.00;101974.53;5044471;28;20049;-63
2024/01/24 03:40:06;;;;;;;0.50;0.30;;;;;;;14.94;100.00;101974.22;5043068;28;20060;-64
2024/01/24 03:42:33;;;;;;;0.75;0.22;;;;;;;14.87;100.00;101968.28;5046181;28;20053;-63
2024/01/24 03:45:01;;;;;;;0.90;0.40;;;;;;;14.53;100.00;101977.06;5045131;28;20570;-64
2024/01/24 03:47:28;;;;;;;2.65;0.52;;;;;;;14.70;100.00;101982.78;5043425;28;20524;-64
2024/01/24 03:49:55;;;;;;;0.35;0.20;;;;;;;14.63;100.00;101982.38;5046654;28;20056;-64
2024/01/24 03:52:22;;;;;;;1.55;0.15;;;;;;;14.68;100.00;101985.03;5034346;28;20424;-64
2024/01/24 03:54:50;;;;;;;0.10;0.10;;;;;;;14.66;100.00;101974.25;5027276;28;20052;-64
2024/01/24 03:57:17;;;;;;;0.70;0.28;;;;;;;14.74;100.00;101964.38;5051749;28;20055;-63
2024/01/24 03:59:50;;;;;;;0.65;0.22;;;;;;;14.85;100.00;101967.75;5066622;28;20083;-64
2024/01/24 04:02:39;;;;;;;2.03;0.17;;;;;;;14.80;100.00;101954.00;5047647;28;20041;-65
2024/01/24 04:05:07;;;;;;;0.40;0.13;;;;;;;14.80;100.00;101954.00;5046331;28;20075;-65
2024/01/24 04:07:34;;;;;;;0.30;0.20;;;;;;;14.83;100.00;101953.38;5045150;28;20049;-64
2024/01/24 04:10:03;;;;;;;0.20;0.10;;;;;;;14.77;100.00;101954.63;5045287;28;20064;-63
2024/01/24 04:12:31;;;;;;;0.17;0.17;;;;;;;14.93;100.00;101942.88;5036647;28;20057;-63
2024/01/24 04:14:58;;;;;;;1.20;0.20;;;;;;;14.86;100.00;101939.72;5025293;28;20060;-64
2024/01/24 04:17:25;;;;;;;0.70;0.20;;;;;;;14.86;100.00;101934.16;5024764;28;20049;-64
2024/01/24 04:19:53;;;;;;;0.30;0.10;;;;;;;14.87;100.00;101938.56;5044062;28;20049;-64
2024/01/24 04:22:20;;;;;;;0.45;0.20;;;;;;;14.86;100.00;101949.97;5045037;28;20048;-64
2024/01/24 04:24:47;;;;;;;0.15;0.13;;;;;;;14.94;99.59;101961.16;5042085;28;20053;-64
2024/01/24 04:27:14;;;;;;;0.22;0.20;;;;;;;15.00;99.61;101959.09;5045822;28;20063;-65
2024/01/24 04:29:42;;;;;;;0.30;0.10;;;;;;;15.16;97.64;101952.88;5042994;28;20056;-65
2024/01/24 04:32:10;;;;;;;0.30;0.15;;;;;;;14.99;98.93;101969.38;5043002;28;20057;-65
2024/01/24 04:34:37;;;;;;;0.30;0.20;;;;;;;14.93;98.64;101976.16;5059925;28;20084;-64
2024/01/24 04:37:04;;;;;;;0.80;0.22;;;;;;;14.87;99.30;101977.41;5045222;28;20578;-64
2024/01/24 04:39:31;;;;;;;0.17;0.10;;;;;;;15.04;98.82;101980.34;5045625;28;20089;-63
2024/01/24 04:41:59;;;;;;;0.10;0.10;;;;;;;15.03;98.96;101969.56;5044307;28;20056;-64
2024/01/24 04:44:38;;;;;;;0.75;0.28;;;;;;;14.95;100.00;101984.16;5042416;28;20064;-64
2024/01/24 04:47:05;;;;;;;0.10;0.10;;;;;;;14.96;99.98;101997.72;5023763;28;20045;-65
2024/01/24 04:49:32;;;;;;;1.33;0.55;;;;;;;15.06;98.86;101982.81;5025799;28;20046;-64
2024/01/24 04:52:13;;;;;;;0.70;0.20;;;;;;;15.25;97.78;101987.06;5026659;28;20049;-65
2024/01/24 04:54:41;;;;;;;;;;;;;;;14.95;98.11;102012.75;5029598;28;20054;-64
2024/01/24 04:57:09;;;;;;;0.30;0.20;;;;;;;15.03;98.57;102017.56;5058604;28;19932;-63
2024/01/24 04:59:36;;;;;;;0.63;0.20;;;;;;;15.01;99.50;102013.47;5049015;28;20057;-64
2024/01/24 05:02:19;;;;;;;2.65;0.20;;;;;;;15.05;98.74;102012.50;5049143;28;20057;-64
2024/01/24 05:04:47;;;;;;;0.73;0.10;;;;;;;15.01;98.81;102005.94;5046894;28;20057;-64
2024/01/24 05:07:15;;;;;;;0.20;0.10;;;;;;;15.00;98.88;102014.56;5064352;28;20044;-63
2024/01/24 05:09:43;;;;;;;1.55;0.10;;;;;;;15.04;99.40;102010.88;5048499;28;20709;-64
2024/01/24 05:12:10;;;;;;;0.30;0.10;;;;;;;14.89;99.43;102018.72;5048694;28;20587;-65
2024/01/24 05:14:37;;;;;;;0.50;0.17;;;;;;;14.94;99.44;102029.72;5048325;28;20061;-64
2024/01/24 05:17:06;;;;;;;0.57;0.28;;;;;;;14.87;98.87;102027.34;5048980;28;20053;-64
2024/01/24 05:19:33;;;;;;;0.10;0.10;;;;;;;14.78;99.56;102028.38;5048654;28;20465;-64
2024/01/24 05:22:01;;;;;;;2.70;0.30;;;;;;;14.68;100.00;102036.94;5048232;28;20044;-64
2024/01/24 05:24:28;;;;;;;1.05;0.22;;;;;;;14.70;100.00;102031.91;5048011;28;20054;-64
2024/01/24 05:26:55;;;;;;;0.80;0.28;;;;;;;14.83;100.00;102042.16;5031949;28;20076;-64
2024/01/24 05:29:22;;;;;;;0.88;0.38;;;;;;;15.02;100.00;102048.38;5029457;28;20053;-65
2024/01/24 05:31:49;;;;;;;1.10;0.30;;;;;;;14.96;100.00;102050.44;5045782;28;20044;-65
2024/01/24 05:34:17;;;;;;;0.82;0.45;;;;;;;15.08;100.00;102049.94;5037648;28;20061;-64
2024/01/24 05:36:44;;;;;;;1.05;0.30;;;;;;;15.12;100.00;102062.88;5039401;28;20053;-64
2024/01/24 05:39:14;;;;;;;1.48;0.47;;;;;;;15.00;100.00;102056.19;5038038;28;20053;-64
2024/01/24 05:41:41;;;;;;;2.07;0.40;;;;;;;15.05;100.00;102061.63;5049739;28;20198;-64
2024/01/24 05:44:08;;;;;;;1.70;0.50;;;;;;;15.02;100.00;102065.88;5048993;28;20053;-64
2024/01/24 05:46:36;;;;;;;1.45;0.35;;;;;;;15.11;100.00;102080.66;5046823;28;20056;-64
2024/01/24 05:49:03;;;;;;;1.20;0.20;;;;;;;14.94;100.00;102090.75;5028809;28;20507;-64
2024/01/24 05:51:30;;;;;;;0.70;0.20;;;;;;;14.95;100.00;102084.06;5028829;28;20061;-63
2024/01/24 05:53:58;;;;;;;0.70;0.20;;;;;;;14.96;100.00;102094.03;5029068;28;20057;-64
2024/01/24 05:56:25;;;;;;;1.30;0.17;;;;;;;14.83;100.00;102108.72;5053986;28;20056;-63
2024/01/24 05:58:53;;;;;;;1.83;0.38;;;;;;;14.80;100.00;102095.47;5035089;28;20053;-64
2024/01/24 06:01:21;;;;;;;1.52;0.30;;;;;;;14.84;100.00;102102.03;5035419;28;20064;-64
2024/01/24 06:03:49;;;;;;;0.75;0.20;;;;;;;14.81;100.00;102109.03;5043259;28;20053;-63
2024/01/24 06:06:18;;;;;;;2.05;0.32;;;;;;;14.82;100.00;102119.00;5049385;28;20056;-64
2024/01/24 06:08:46;;;;;;;2.28;0.50;;;;;;;14.86;100.00;102119.19;5048812;28;20068;-64
2024/01/24 06:11:14;;;;;;;4.03;0.75;;;;;;;14.65;100.00;102133.47;5047143;28;20056;-63
2024/01/24 06:13:42;;;;;;;0.80;0.22;;;;;;;14.68;100.00;102135.63;5048330;28;20060;-64
2024/01/24 06:16:10;;;;;;;1.95;0.50;;;;;;;14.67;100.00;102158.13;5049413;28;20041;-64
2024/01/24 06:18:37;;;;;;;0.65;0.20;;;;;;;14.52;100.00;102155.66;5064218;28;20055;-64
2024/01/24 06:21:04;;;;;;;2.47;0.50;;;;;;;14.51;100.00;102160.34;5048962;28;20494;-59
2024/01/24 06:23:32;;;;;;;1.13;0.28;;;;;;;14.39;100.00;102153.66;5047036;28;20064;-60
2024/01/24 06:25:59;;;;;;;1.60;0.30;;;;;;;14.18;100.00;102163.41;5047328;28;20048;-60
2024/01/24 06:28:26;;;;;;;2.72;0.52;;;;;;;14.39;100.00;102176.66;5047266;28;20056;-59
2024/01/24 06:30:53;;;;;;;2.00;0.22;;;;;;;14.07;100.00;102173.03;5040086;28;20061;-59
2024/01/24 06:33:21;;;;;;;1.00;0.25;;;;;;;13.82;100.00;102188.09;5041521;28;20701;-60
2024/01/24 06:35:49;;;;;;;1.23;0.50;;;;;;;13.85;100.00;102184.69;5028572;28;20049;-58
2024/01/24 06:38:16;;;;;;;2.35;0.32;;;;;;;13.70;100.00;102200.72;5080337;28;20049;-61
2024/01/24 06:40:43;;;;;;;2.47;0.30;;;;;;;13.49;100.00;102194.63;5039138;28;20053;-59
2024/01/24 06:43:12;;;;;;;1.95;0.40;;;;;;;13.52;100.00;102207.88;5043035;28;20064;-61
2024/01/24 06:45:39;;;;;;;0.90;0.32;;;;;;;13.61;100.00;102210.81;5042849;28;20053;-61
2024/01/24 06:48:07;;;;;;;1.77;0.57;;;;;;;13.53;100.00;102212.28;5047532;28;20045;-60
2024/01/24 06:50:35;;;;;;;1.73;0.32;;;;;;;13.46;100.00;102217.34;5048705;28;20649;-60
2024/01/24 06:53:03;;;;;;;2.10;0.60;;;;;;;13.49;100.00;102214.81;5047787;28;20060;-60
2024/01/24 06:55:31;;;;;;;3.28;0.60;;;;;;;13.50;100.00;102221.19;5051398;28;20059;-61
2024/01/24 06:57:58;;;;;;;3.03;0.40;;;;;;;13.36;100.00;102234.94;5056461;28;20045;-60
2024/01/24 07:00:26;;;;;;;3.92;0.50;;;;;;;13.50;100.00;102230.31;5047994;28;20052;-59
2024/01/24 07:02:54;;;;;;;3.38;0.50;;;;;;;13.69;100.00;102226.75;5039579;28;20045;-61
2024/01/24 07:05:21;;;;;;;5.57;0.77;;;;;;;13.44;100.00;102227.94;5026754;28;20390;-60
2024/01/24 07:07:49;;;;;;;4.10;0.68;;;;;;;13.26;100.00;102237.00;5026903;28;20049;-59
2024/01/24 07:10:16;;;;;;;6.20;1.08;;;;;;;13.21;100.00;102231.53;5027683;28;20053;-61
2024/01/24 07:12:46;;;;;;;6.30;1.25;;;;;;;13.23;100.00;102223.75;5026411;28;20057;-61
2024/01/24 07:15:18;;;;;;;4.78;0.80;;;;;;;13.31;100.00;102239.69;5027419;28;20057;-60
2024/01/24 07:17:45;;;;;;;7.60;1.15;;;;;;;13.50;100.00;102238.63;5030796;28;20049;-60
2024/01/24 07:20:13;;;;;;;8.38;1.33;;;;;;;13.42;100.00;102244.00;5027632;28;20103;-60
2024/01/24 07:22:40;;;;;;;6.32;0.80;;;;;;;13.57;100.00;102238.25;5045087;28;20056;-60
2024/01/24 07:25:08;;;;;;;5.28;1.02;;;;;;;13.45;100.00;102229.56;5047700;28;20056;-62
2024/01/24 07:27:36;;;;;;;7.05;1.05;;;;;;;13.48;100.00;102237.25;5047037;28;20056;-60
2024/01/24 07:30:04;;;;;;;8.90;1.48;;;;;;;13.34;100.00;102237.16;5035892;28;20767;-61
2024/01/24 07:32:31;;;;;;;9.27;1.30;;;;;;;13.48;100.00;102243.63;5051543;28;20048;-60
2024/01/24 07:34:59;;;;;;;6.53;1.05;;;;;;;13.43;100.00;102243.69;5046217;28;20076;-60
2024/01/24 07:37:26;;;;;;;4.03;0.90;;;;;;;13.50;100.00;102255.25;5034280;28;20057;-61
2024/01/24 07:39:54;;;;;;;9.35;1.38;;;;;;;13.69;100.00;102251.66;5028616;28;20049;-61
2024/01/24 07:42:22;;;;;;;13.15;1.55;;;;;;;13.75;100.00;102265.16;5047770;28;20053;-60
2024/01/24 07:44:49;;;;;;;7.43;1.48;;;;;;;13.89;100.00;102254.19;5047654;28;20053;-60
2024/01/24 07:47:20;;;;;;;9.38;1.58;;;;;;;13.63;100.00;102245.41;5032065;28;20041;-63
2024/01/24 07:49:51;;;;;;;9.45;1.60;;;;;;;13.68;100.00;102242.56;5027806;28;20053;-63
2024/01/24 07:52:21;;;;;;;8.02;1.70;;;;;;;13.80;100.00;102255.97;5030727;28;20049;-63
2024/01/24 07:55:13;;;;;;;5.93;1.38;;;;;;;13.88;100.00;102261.66;5038829;28;20706;-62
2024/01/24 07:57:46;;;;;;;7.28;1.40;;;;;;;14.07;100.00;102268.03;5047546;28;20033;-59
2024/01/24 08:00:16;;;;;;;9.70;1.80;;;;;;;14.05;100.00;102275.81;5033985;28;20049;-60
2024/01/24 08:02:46;;;;;;;11.05;2.10;;;;;;;14.18;100.00;102277.03;5046129;28;20057;-60
2024/01/24 08:05:18;;;;;;;13.65;1.75;;;;;;;13.98;100.00;102277.31;5042748;28;20052;-61
2024/01/24 08:07:45;;;;;;;10.60;1.75;;;;;;;13.85;100.00;102291.91;5058082;28;20137;-61
2024/01/24 08:10:13;;;;;;;10.00;1.25;;;;;;;13.85;100.00;102294.66;5040980;28;20045;-60
2024/01/24 08:12:41;;;;;;;9.35;1.67;;;;;;;13.65;100.00;102297.72;5030930;28;20057;-60
2024/01/24 08:15:09;;;;;;;11.60;2.00;;;;;;;13.67;100.00;102298.25;5047693;28;20044;-58
2024/01/24 08:17:36;;;;;;;9.05;1.67;;;;;;;13.53;100.00;102301.69;5057384;28;20051;-60
2024/01/24 08:20:04;;;;;;;16.92;2.03;;;;;;;13.58;100.00;102293.34;5049233;28;20530;-60
2024/01/24 08:22:32;;;;;;;13.45;2.10;;;;;;;13.68;100.00;102308.19;5046980;28;20063;-60
2024/01/24 08:25:00;;;;;;;11.85;1.98;;;;;;;13.60;100.00;102314.38;5044055;28;20053;-60
2024/01/24 08:27:28;;;;;;;13.98;2.40;;;;;;;13.67;100.00;102334.25;5050982;28;20049;-56
2024/01/24 08:29:56;;;;;;;17.20;3.05;;;;;;;13.60;100.00;102329.03;5043484;28;20412;-57
2024/01/24 08:32:25;;;;;;;11.70;2.58;;;;;;;13.70;100.00;102339.19;5040120;28;20057;-59
2024/01/24 08:34:53;;;;;;;14.50;2.78;;;;;;;13.72;98.35;102343.28;5044390;28;20067;-60
2024/01/24 08:37:21;;;;;;;17.65;3.13;;;;;;;13.51;99.41;102352.97;5056426;28;20048;-60
2024/01/24 08:39:49;;;;;;;14.13;2.40;;;;;;;13.62;98.95;102351.72;5058127;28;20068;-58
2024/01/24 08:42:16;;;;;;;17.77;2.95;;;;;;;13.48;98.71;102378.44;5051098;28;20049;-61
2024/01/24 08:44:44;;;;;;;19.13;2.92;;;;;;;13.66;99.30;102369.41;5049285;28;20482;-60
2024/01/24 08:47:11;;;;;;;22.20;3.05;;;;;;;13.68;98.61;102374.63;5035857;28;20061;-60
2024/01/24 08:49:39;;;;;;;17.27;2.72;;;;;;;13.61;98.08;102369.47;5038712;28;20049;-60
2024/01/24 08:52:07;;;;;;;15.43;3.00;;;;;;;13.65;98.22;102380.78;5058022;28;20063;-60
2024/01/24 08:54:34;;;;;;;21.38;3.67;;;;;;;13.61;98.73;102371.41;5051062;28;20064;-60
2024/01/24 08:57:04;;;;;;;17.33;2.63;;;;;;;13.79;98.41;102363.13;5028130;28;20069;-57
2024/01/24 08:59:32;;;;;;;15.95;2.90;;;;;;;13.72;97.67;102365.44;5037883;28;20073;-59
2024/01/24 09:02:01;;;;;;;20.33;3.45;;;;;;;13.66;98.50;102363.03;5056577;28;20079;-57
2024/01/24 09:04:28;;;;;;;15.35;2.55;;;;;;;13.64;98.54;102363.31;5043566;28;20815;-58
2024/01/24 09:06:57;;;;;;;15.45;2.65;;;;;;;13.84;98.66;102378.91;5044494;28;20530;-59
2024/01/24 09:09:25;;;;;;;23.60;3.22;;;;;;;14.01;97.24;102363.44;5056482;28;20068;-56
2024/01/24 09:11:53;;;;;;;15.88;2.83;;;;;;;13.99;96.89;102379.53;5037449;28;20042;-55
2024/01/24 09:14:24;;;;;;;20.65;3.25;;;;;;;13.96;96.41;102384.84;5047695;28;20057;-60
2024/01/24 09:16:52;;;;;;;12.60;2.30;;;;;;;13.84;97.00;102381.66;5038024;28;20062;-57
2024/01/24 09:19:20;;;;;;;11.70;2.28;;;;;;;13.93;97.83;102396.53;5062929;28;20055;-58
2024/01/24 09:21:49;;;;;;;12.07;2.85;;;;;;;14.08;97.67;102401.88;5039098;28;20068;-58
2024/01/24 09:24:16;;;;;;;13.80;2.65;;;;;;;14.42;96.67;102408.09;5047865;28;20056;-58
2024/01/24 09:26:44;;;;;;;13.05;2.33;;;;;;;13.94;96.99;102410.06;5044414;28;20068;-60
2024/01/24 09:29:12;;;;;;;15.13;2.72;;;;;;;13.84;98.43;102431.53;5045443;28;20056;-59
2024/01/24 09:31:46;;;;;;;15.93;2.70;;;;;;;13.95;98.82;102430.28;5037449;28;20068;-57
2024/01/24 09:34:14;;;;;;;17.73;3.08;;;;;;;13.78;96.88;102424.38;5039370;28;20056;-58
2024/01/24 09:36:42;;;;;;;17.55;2.83;;;;;;;13.74;96.75;102426.09;5048657;28;20056;-59
2024/01/24 09:39:10;;;;;;;18.27;2.90;;;;;;;13.83;94.38;102419.59;5036046;28;20053;-57
2024/01/24 09:41:42;;;;;;;19.55;3.17;;;;;;;13.57;93.12;102430.13;5034884;28;20068;-59
2024/01/24 09:44:11;;;;;;;17.75;2.63;;;;;;;13.58;92.20;102429.00;5045832;28;20766;-59
2024/01/24 09:46:42;;;;;;;24.55;5.20;;;;;;;13.58;91.42;102439.28;5044022;28;20041;-59
2024/01/24 09:49:09;;;;;;;;;;;;;;;13.55;90.03;102432.38;5035477;28;20120;-60
2024/01/24 09:51:37;;;;;;;24.20;4.38;;;;;;;13.82;89.75;102439.28;5058384;28;19925;-58
2024/01/24 09:54:06;;;;;;;21.48;4.55;;;;;;;13.83;89.03;102439.00;5058183;28;20068;-62
2024/01/24 09:56:37;;;;;;;27.60;4.43;;;;;;;13.61;87.50;102441.44;5030651;28;20060;-64
2024/01/24 09:59:06;;;;;;;26.88;4.68;;;;;;;13.63;87.54;102443.91;5052978;28;20052;-65
2024/01/24 10:01:34;;;;;;;27.00;4.95;;;;;;;13.59;86.05;102452.00;5049780;28;20060;-57
2024/01/24 10:04:01;;;;;;;24.95;4.68;;;;;;;13.60;86.91;102456.41;5028654;28;20471;-59
2024/01/24 10:06:30;;;;;;;24.17;4.47;;;;;;;13.67;85.15;102451.34;5050593;28;20063;-57
2024/01/24 10:08:58;;;;;;;29.70;5.03;;;;;;;13.80;85.23;102463.69;5042278;28;20061;-57
2024/01/24 10:11:26;;;;;;;31.42;6.10;;;;;;;13.79;82.41;102482.25;5038231;28;20060;-59
2024/01/24 10:13:57;;;;;;;32.03;5.45;;;;;;;13.75;82.62;102469.28;5031465;28;20041;-59
2024/01/24 10:16:26;;;;;;;27.25;7.07;;;;;;;14.04;82.12;102481.16;5026326;28;20057;-60
2024/01/24 10:18:54;;;;;;;32.25;6.32;;;;;;;13.97;80.70;102472.38;5042161;28;20068;-60
2024/01/24 10:21:23;;;;;;;35.92;6.50;;;;;;;14.23;80.86;102473.72;5042902;28;20068;-58
2024/01/24 10:23:55;;;;;;;36.20;6.05;;;;;;;14.34;79.44;102473.34;5043853;28;20059;-61
2024/01/24 10:26:22;;;;;;;32.95;5.75;;;;;;;14.26;79.13;102473.19;5030552;28;20053;-60
2024/01/24 10:28:50;;;;;;;30.73;5.55;;;;;;;14.19;78.67;102481.81;5043212;28;20803;-60
2024/01/24 10:31:21;;;;;;;32.45;4.97;;;;;;;13.85;79.85;102489.41;5024966;28;20053;-61
2024/01/24 10:33:53;;;;;;;31.33;6.55;;;;;;;13.76;80.74;102495.84;5034942;28;20060;-61
2024/01/24 10:36:21;;;;;;;35.03;6.18;;;;;;;13.61;81.91;102499.59;5038738;28;20061;-59
2024/01/24 10:39:00;;;;;;;35.10;7.32;;;;;;;13.87;81.97;102500.19;5044606;28;20049;-58
2024/01/24 10:41:29;;;;;;;;;;;;;;;13.70;80.66;102505.34;5048595;28;20399;-61
2024/01/24 10:43:59;;;;;;;32.55;5.72;;;;;;;13.68;81.97;102502.84;5040580;28;19936;-60
2024/01/24 10:46:26;;;;;;;;;;;;;;;13.91;81.22;102502.09;5039203;28;20057;-58
2024/01/24 10:48:54;;;;;;;36.15;6.13;;;;;;;13.88;81.02;102505.41;5057567;28;20645;-55
2024/01/24 10:51:22;;;;;;;39.13;6.88;;;;;;;13.81;80.69;102507.72;5037511;28;20076;-63
2024/01/24 10:53:51;;;;;;;41.28;6.63;;;;;;;13.82;80.23;102519.63;5039568;28;20803;-65
2024/01/24 10:56:20;;;;;;;33.22;6.22;;;;;;;13.77;80.29;102509.44;5056404;28;20056;-64
2024/01/24 10:58:48;;;;;;;32.90;6.63;;;;;;;13.85;78.89;102519.88;5022903;28;20048;-64
2024/01/24 11:01:15;;;;;;;36.25;6.32;;;;;;;13.87;78.77;102511.25;5061816;28;20060;-62
2024/01/24 11:03:45;;;;;;;30.30;6.10;;;;;;;14.03;78.27;102512.75;5047250;28;20057;-65
2024/01/24 11:06:15;;;;;;;33.25;6.03;;;;;;;13.81;78.55;102504.13;5038743;28;20056;-64
2024/01/24 11:08:48;;;;;;;33.42;7.05;;;;;;;13.73;79.93;102499.19;5026449;28;20414;-64
2024/01/24 11:11:20;;;;;;;36.03;6.82;;;;;;;13.63;79.45;102491.00;5046044;28;20045;-64
2024/01/24 11:13:47;;;;;;;38.20;6.43;;;;;;;13.62;80.82;102481.84;5038192;28;20057;-63
2024/01/24 11:16:29;;;;;;;34.70;6.03;;;;;;;13.79;79.08;102473.94;5042898;28;20049;-64
2024/01/24 11:18:59;;;;;;;37.13;6.90;;;;;;;13.92;76.79;102469.66;5041089;28;20049;-64
2024/01/24 11:21:28;;;;;;;38.92;6.55;;;;;;;13.87;76.90;102461.41;5041482;28;20053;-66
2024/01/24 11:23:57;;;;;;;36.30;5.82;;;;;;;13.88;77.62;102474.16;5039601;28;20048;-63